| time (UTC) | temp C | wind direction | speed KPH | gust KPH | rain 1hr cm | rain 24hr cm | rain mn cm | humidity % | barometer mb |
| 20260505051554 | 12 | 0 | 0.0 | 0.0 | 0.00 | 0.00 | 0.00 | 75 | 1016.0 |
| 20260505041557 | 13 | 0 | 0.0 | 0.0 | 0.00 | 0.00 | 0.00 | 72 | 1015.9 |
| 20260505040059 | 14 | 0 | 0.0 | 0.0 | 0.00 | 0.00 | 0.00 | 71 | 1015.8 |
| 20260505034556 | 14 | 0 | 0.0 | 0.0 | 0.00 | 0.00 | 0.00 | 69 | 1016.1 |
| 20260505033100 | 15 | 0 | 0.0 | 0.0 | 0.00 | 0.00 | 0.00 | 69 | 1016.2 |
| 20260505031555 | 15 | 0 | 0.0 | 0.0 | 0.00 | 0.00 | 0.00 | 67 | 1016.2 |
| 20260505030055 | 15 | 0 | 0.0 | 0.0 | 0.00 | 0.00 | 0.00 | 67 | 1016.2 |
| 20260505024555 | 16 | 0 | 0.0 | 1.6 | 0.00 | 0.00 | 0.00 | 66 | 1016.2 |
| 20260505023058 | 16 | 0 | 0.0 | 0.0 | 0.00 | 0.00 | 0.00 | 63 | 1016.2 |
| 20260505021602 | 17 | 0 | 0.0 | 0.0 | 0.00 | 0.00 | 0.00 | 61 | 1016.2 |
| 20260505020054 | 17 | 0 | 0.0 | 0.0 | 0.00 | 0.00 | 0.00 | 60 | 1016.0 |
| 20260505014556 | 18 | 0 | 0.0 | 0.0 | 0.00 | 0.00 | 0.00 | 58 | 1015.9 |
| 20260505013050 | 18 | 0 | 0.0 | 1.6 | 0.00 | 0.00 | 0.00 | 56 | 1015.8 |
| 20260505011600 | 19 | 0 | 0.0 | 0.0 | 0.00 | 0.00 | 0.00 | 54 | 1015.6 |
| 20260505010104 | 20 | 0 | 0.0 | 0.0 | 0.00 | 0.00 | 0.00 | 52 | 1015.4 |
| 20260505004602 | 21 | 0 | 0.0 | 0.0 | 0.00 | 0.00 | 0.00 | 50 | 1015.3 |
| 20260505003056 | 21 | 0 | 0.0 | 0.0 | 0.00 | 0.00 | 0.00 | 47 | 1015.2 |
| 20260505001556 | 22 | 0 | 0.0 | 0.0 | 0.00 | 0.00 | 0.00 | 46 | 1015.1 |
| 20260505000101 | 22 | 0 | 0.0 | 0.0 | 0.00 | 0.00 | 0.00 | 43 | 1014.9 |
| 20260504234605 | 23 | 0 | 0.0 | 0.0 | 0.00 | 0.00 | 0.00 | 41 | 1015.0 |
| 20260504233059 | 23 | 0 | 0.0 | 3.2 | 0.00 | 0.00 | 0.00 | 39 | 1014.9 |
| 20260504231552 | 23 | 122 | 0.0 | 4.8 | 0.00 | 0.00 | 0.00 | 38 | 1015.0 |
| 20260504230055 | 23 | 0 | 0.0 | 4.8 | 0.00 | 0.00 | 0.00 | 35 | 1015.1 |
| 20260504224554 | 24 | 218 | 1.6 | 11.3 | 0.00 | 0.00 | 0.00 | 34 | 1015.1 |
| 20260504223055 | 24 | 0 | 0.0 | 6.4 | 0.00 | 0.00 | 0.00 | 34 | 1015.1 |
| 20260504221551 | 25 | 0 | 1.6 | 6.4 | 0.00 | 0.00 | 0.00 | 33 | 1015.1 |
| 20260504214557 | 25 | 217 | 3.2 | 12.9 | 0.00 | 0.00 | 0.00 | 32 | 1015.0 |
| 20260504213109 | 26 | 219 | 0.0 | 11.3 | 0.00 | 0.00 | 0.00 | 32 | 1015.0 |
| 20260504211554 | 26 | 185 | 4.8 | 12.9 | 0.00 | 0.00 | 0.00 | 31 | 1015.0 |
| 20260504210054 | 26 | 0 | 1.6 | 8.0 | 0.00 | 0.00 | 0.00 | 30 | 1015.0 |
| 20260504204600 | 26 | 196 | 0.0 | 8.0 | 0.00 | 0.00 | 0.00 | 30 | 1015.2 |
| 20260504203053 | 26 | 115 | 3.2 | 6.4 | 0.00 | 0.00 | 0.00 | 29 | 1015.3 |
| 20260504201553 | 27 | 240 | 3.2 | 11.3 | 0.00 | 0.00 | 0.00 | 27 | 1015.4 |
| 20260504200055 | 27 | 211 | 4.8 | 14.5 | 0.00 | 0.00 | 0.00 | 28 | 1015.6 |
| 20260504194559 | 27 | 0 | 1.6 | 8.0 | 0.00 | 0.00 | 0.00 | 28 | 1015.7 |
| 20260504193112 | 27 | 140 | 3.2 | 8.0 | 0.00 | 0.00 | 0.00 | 28 | 1016.1 |
| 20260504191555 | 26 | 227 | 1.6 | 11.3 | 0.00 | 0.00 | 0.00 | 29 | 1016.3 |
| 20260504190105 | 26 | 38 | 1.6 | 12.9 | 0.00 | 0.00 | 0.00 | 30 | 1016.5 |
| 20260504184551 | 28 | 141 | 3.2 | 9.7 | 0.00 | 0.00 | 0.00 | 27 | 1016.6 |
| 20260504183101 | 27 | 191 | 1.6 | 11.3 | 0.00 | 0.00 | 0.00 | 29 | 1016.8 |
| 20260504181559 | 27 | 193 | 1.6 | 9.7 | 0.00 | 0.00 | 0.00 | 30 | 1017.1 |
| 20260504180131 | 26 | 77 | 1.6 | 8.0 | 0.00 | 0.00 | 0.00 | 29 | 1017.2 |
| 20260504174550 | 25 | 62 | 0.0 | 4.8 | 0.00 | 0.00 | 0.00 | 31 | 1017.3 |
| 20260504173050 | 25 | 73 | 1.6 | 6.4 | 0.00 | 0.00 | 0.00 | 29 | 1017.5 |
| 20260504171552 | 26 | 347 | 3.2 | 6.4 | 0.00 | 0.00 | 0.00 | 29 | 1017.6 |
| 20260504120105 | 7 | 0 | 0.0 | 0.0 | 0.00 | 0.00 | 0.00 | 90 | 1018.8 |
| 20260504081553 | 8 | 0 | 0.0 | 0.0 | 0.00 | 0.00 | 0.00 | 83 | 1018.2 |
| 20260504060106 | 10 | 0 | 0.0 | 0.0 | 0.00 | 0.00 | 0.00 | 75 | 1018.7 |